Airfield :
LOGIN :

Register | Disclaimer

   EN    FR    IT 

 










Legend :    VFR   Marginal VFR   IFR   Intensive IFR   Very Intensive IFR
Visi :
Ceiling :
>= 8 km
>= 3000ft
5 to 8 km
1000 to 3000 ft
1500m to 5 km
500 to 1000 ft
800 to 1500m
200 to 500 ft
< 800m
< 200 ft
Symbols :   Thunderstorms  Fog  Heavy snow  Heavy precipitations  Wind > 20 kt
SIGMETs :     Misc.  Thunderstorms  Icing  Turbulence  Mountain Waves  Volcanic Ashes







- Airport Elevation : 375 ft
- IATA code : MST


EHBK - Maastricht Aachen

CURRENT METAR :
  • 180225Z AUTO 26005KT 230V290 4500 BR OVC002 01/00 Q1016

EXPIRED METARs :
  • 180155Z AUTO 26006KT 220V290 6000 SCT003 OVC004 01/00 Q1016
  • 180125Z AUTO 26005KT 220V300 4000 BR BKN002 OVC004 01/01 Q1015
  • 180055Z AUTO 25006KT 220V320 3900 BR OVC002 01/01 Q1015
  • 180025Z AUTO 26005KT 220V300 6000 OVC002 01/00 Q1015
  • 172355Z AUTO 25005KT 210V290 9999 FEW004 BKN005 BKN007 00/00 Q1014

TAF TAF EHBK
Valid from the 18 at 00:00 until the 19 at 06:00 UTC


172308Z 1800/1906 27009KT 7000 SCT004 BKN007
BECMG 1800/1803 3000 BR FEW030
PROB40
TEMPO 1800/1802 1400 SN BKN003
PROB40 1805/1810 0500 FZFG BKN001
BECMG 1810/1813 CAVOK
No reported NOTAMs for that airfield.



MET'MAP, your aeronautical weather chart ! - Copyright ORBIFLY December 2007 - Disclaimer

ORBIFLY MET'MAP TEAM :

Programming & Development : Alexandra Zaïnal
Concept & Development : Baudouin d'Aumeries
Co-Development & Prog : Marc-Olivier Méhu
Technical & hardware support : Manuel Goepfert

Contact : metmap@orbifly.com




SOURCES & CREDITS :

   NOAA